Claresholm, Canada
Current Conditions -  °F | °C
As of 11:00 PM on Wednesday 22 Oct 2014 (Local Time) from CZPC Reporting Station
Clear Clear  
Wind Chill: 50°   Ceiling: Unl
Heat Index: 50°   Visibility: 9mi
Dew Point: 37°   Wind: 17mph
Humidity: 62%   Direction: 260°W
Pressure: 29.69"   Gusts: NA
Location:  50.03°N, 113.58°W
Report Text: CZPC 230500Z AUTO 26015KT 9SM CLR 10/03 A2969 RMK SLP057 DENSITY ALT 4400FT
Loading
Personal Weather Stations






























Interactive Weather Map
Tropical Storm Tracking
New forecast layout! Learn more

10-Day Weather Forecast

Advertisements
Track Severe Weather on mobile